sensor_id;sensor_type;location;lat;lon;timestamp;P1;durP1;ratioP1;P2;durP2;ratioP2
50585;SDS011;36542;51.700;8.846;2024-01-06T00:00:29;8.10;;;6.87;;
50585;SDS011;36542;51.700;8.846;2024-01-06T00:02:55;11.00;;;7.80;;
50585;SDS011;36542;51.700;8.846;2024-01-06T00:05:21;8.93;;;6.73;;
50585;SDS011;36542;51.700;8.846;2024-01-06T00:07:46;10.93;;;7.70;;
50585;SDS011;36542;51.700;8.846;2024-01-06T00:10:12;10.17;;;7.87;;
50585;SDS011;36542;51.700;8.846;2024-01-06T00:12:38;10.33;;;8.37;;
50585;SDS011;36542;51.700;8.846;2024-01-06T00:15:04;10.97;;;8.30;;
50585;SDS011;36542;51.700;8.846;2024-01-06T00:17:30;15.57;;;8.60;;
50585;SDS011;36542;51.700;8.846;2024-01-06T00:19:55;14.37;;;8.13;;
50585;SDS011;36542;51.700;8.846;2024-01-06T00:22:21;11.87;;;8.30;;
50585;SDS011;36542;51.700;8.846;2024-01-06T00:24:46;11.60;;;8.10;;
50585;SDS011;36542;51.700;8.846;2024-01-06T00:27:13;12.77;;;8.40;;
50585;SDS011;36542;51.700;8.846;2024-01-06T00:29:38;12.17;;;8.07;;
50585;SDS011;36542;51.700;8.846;2024-01-06T00:32:04;14.77;;;8.63;;
50585;SDS011;36542;51.700;8.846;2024-01-06T00:34:30;12.67;;;7.67;;
50585;SDS011;36542;51.700;8.846;2024-01-06T00:36:56;14.17;;;8.07;;
50585;SDS011;36542;51.700;8.846;2024-01-06T00:39:21;13.40;;;8.47;;
50585;SDS011;36542;51.700;8.846;2024-01-06T00:41:47;11.23;;;7.73;;
50585;SDS011;36542;51.700;8.846;2024-01-06T00:44:12;12.63;;;8.30;;
50585;SDS011;36542;51.700;8.846;2024-01-06T00:46:38;13.90;;;8.90;;
50585;SDS011;36542;51.700;8.846;2024-01-06T00:49:04;12.83;;;8.50;;
50585;SDS011;36542;51.700;8.846;2024-01-06T00:51:30;18.70;;;10.00;;
50585;SDS011;36542;51.700;8.846;2024-01-06T00:53:55;16.53;;;9.73;;
50585;SDS011;36542;51.700;8.846;2024-01-06T00:56:21;15.03;;;10.17;;
50585;SDS011;36542;51.700;8.846;2024-01-06T00:58:47;14.10;;;9.97;;
50585;SDS011;36542;51.700;8.846;2024-01-06T01:01:13;17.23;;;10.60;;
50585;SDS011;36542;51.700;8.846;2024-01-06T01:03:38;17.93;;;11.13;;
50585;SDS011;36542;51.700;8.846;2024-01-06T01:06:04;19.93;;;12.13;;
50585;SDS011;36542;51.700;8.846;2024-01-06T01:08:29;22.83;;;12.20;;
50585;SDS011;36542;51.700;8.846;2024-01-06T01:10:56;22.00;;;11.90;;
50585;SDS011;36542;51.700;8.846;2024-01-06T01:13:22;22.63;;;12.47;;
50585;SDS011;36542;51.700;8.846;2024-01-06T01:15:48;26.27;;;14.80;;
50585;SDS011;36542;51.700;8.846;2024-01-06T01:18:14;26.37;;;14.17;;
50585;SDS011;36542;51.700;8.846;2024-01-06T01:20:39;25.40;;;13.33;;
50585;SDS011;36542;51.700;8.846;2024-01-06T01:23:07;24.57;;;12.63;;
50585;SDS011;36542;51.700;8.846;2024-01-06T01:25:32;25.93;;;13.60;;
50585;SDS011;36542;51.700;8.846;2024-01-06T01:27:58;27.83;;;14.70;;
50585;SDS011;36542;51.700;8.846;2024-01-06T01:30:24;28.40;;;14.53;;
50585;SDS011;36542;51.700;8.846;2024-01-06T01:32:49;28.97;;;14.53;;
50585;SDS011;36542;51.700;8.846;2024-01-06T01:35:15;25.77;;;14.90;;
50585;SDS011;36542;51.700;8.846;2024-01-06T01:37:40;29.23;;;15.40;;
50585;SDS011;36542;51.700;8.846;2024-01-06T01:40:06;30.63;;;16.20;;
50585;SDS011;36542;51.700;8.846;2024-01-06T01:42:32;32.37;;;15.57;;
50585;SDS011;36542;51.700;8.846;2024-01-06T01:44:58;30.07;;;16.70;;
50585;SDS011;36542;51.700;8.846;2024-01-06T01:47:24;36.80;;;17.13;;
50585;SDS011;36542;51.700;8.846;2024-01-06T01:49:50;32.40;;;17.60;;
50585;SDS011;36542;51.700;8.846;2024-01-06T01:52:15;31.40;;;16.67;;
50585;SDS011;36542;51.700;8.846;2024-01-06T01:54:42;34.03;;;17.70;;
50585;SDS011;36542;51.700;8.846;2024-01-06T01:57:08;34.10;;;18.10;;
50585;SDS011;36542;51.700;8.846;2024-01-06T01:59:35;32.47;;;17.53;;
50585;SDS011;36542;51.700;8.846;2024-01-06T02:02:01;36.20;;;19.00;;
50585;SDS011;36542;51.700;8.846;2024-01-06T02:04:27;34.70;;;17.50;;
50585;SDS011;36542;51.700;8.846;2024-01-06T02:06:53;33.73;;;16.77;;
50585;SDS011;36542;51.700;8.846;2024-01-06T02:09:18;33.83;;;17.00;;
50585;SDS011;36542;51.700;8.846;2024-01-06T02:11:44;35.17;;;17.87;;
50585;SDS011;36542;51.700;8.846;2024-01-06T02:14:10;32.03;;;16.93;;
50585;SDS011;36542;51.700;8.846;2024-01-06T02:16:35;32.47;;;18.03;;
50585;SDS011;36542;51.700;8.846;2024-01-06T02:19:01;36.23;;;17.83;;
50585;SDS011;36542;51.700;8.846;2024-01-06T02:21:28;31.23;;;17.10;;
50585;SDS011;36542;51.700;8.846;2024-01-06T02:23:56;34.63;;;17.67;;
50585;SDS011;36542;51.700;8.846;2024-01-06T02:26:21;36.70;;;18.30;;
50585;SDS011;36542;51.700;8.846;2024-01-06T02:28:47;30.97;;;15.77;;
50585;SDS011;36542;51.700;8.846;2024-01-06T02:31:14;26.60;;;14.53;;
50585;SDS011;36542;51.700;8.846;2024-01-06T02:33:39;29.07;;;14.30;;
50585;SDS011;36542;51.700;8.846;2024-01-06T02:36:05;29.20;;;15.30;;
50585;SDS011;36542;51.700;8.846;2024-01-06T02:38:31;27.50;;;13.80;;
50585;SDS011;36542;51.700;8.846;2024-01-06T02:40:56;21.57;;;11.23;;
50585;SDS011;36542;51.700;8.846;2024-01-06T02:43:22;16.83;;;8.30;;
50585;SDS011;36542;51.700;8.846;2024-01-06T02:45:48;14.53;;;8.57;;
50585;SDS011;36542;51.700;8.846;2024-01-06T02:48:14;14.40;;;7.90;;
50585;SDS011;36542;51.700;8.846;2024-01-06T02:50:40;13.10;;;7.83;;
50585;SDS011;36542;51.700;8.846;2024-01-06T02:53:06;13.00;;;8.30;;
50585;SDS011;36542;51.700;8.846;2024-01-06T02:55:31;13.37;;;8.17;;
50585;SDS011;36542;51.700;8.846;2024-01-06T02:57:57;13.73;;;7.27;;
50585;SDS011;36542;51.700;8.846;2024-01-06T03:00:22;14.60;;;7.90;;
50585;SDS011;36542;51.700;8.846;2024-01-06T03:02:48;15.27;;;8.43;;
50585;SDS011;36542;51.700;8.846;2024-01-06T03:05:14;15.17;;;8.73;;
50585;SDS011;36542;51.700;8.846;2024-01-06T03:07:39;16.93;;;8.97;;
50585;SDS011;36542;51.700;8.846;2024-01-06T03:10:05;16.70;;;8.53;;
50585;SDS011;36542;51.700;8.846;2024-01-06T03:12:31;17.40;;;9.10;;
50585;SDS011;36542;51.700;8.846;2024-01-06T03:14:56;20.40;;;9.80;;
50585;SDS011;36542;51.700;8.846;2024-01-06T03:17:21;16.17;;;8.90;;
50585;SDS011;36542;51.700;8.846;2024-01-06T03:19:47;17.37;;;9.70;;
50585;SDS011;36542;51.700;8.846;2024-01-06T03:22:13;18.80;;;9.20;;
50585;SDS011;36542;51.700;8.846;2024-01-06T03:24:39;16.80;;;8.97;;
50585;SDS011;36542;51.700;8.846;2024-01-06T03:27:05;14.53;;;7.53;;
50585;SDS011;36542;51.700;8.846;2024-01-06T03:29:31;13.53;;;7.10;;
50585;SDS011;36542;51.700;8.846;2024-01-06T03:31:56;14.47;;;7.87;;
50585;SDS011;36542;51.700;8.846;2024-01-06T03:34:22;14.60;;;7.40;;
50585;SDS011;36542;51.700;8.846;2024-01-06T03:36:48;15.80;;;8.03;;
50585;SDS011;36542;51.700;8.846;2024-01-06T03:39:14;14.80;;;7.60;;
50585;SDS011;36542;51.700;8.846;2024-01-06T03:41:39;12.13;;;7.33;;
50585;SDS011;36542;51.700;8.846;2024-01-06T03:44:05;14.07;;;8.33;;
50585;SDS011;36542;51.700;8.846;2024-01-06T03:46:30;18.23;;;9.33;;
50585;SDS011;36542;51.700;8.846;2024-01-06T03:48:56;17.67;;;9.33;;
50585;SDS011;36542;51.700;8.846;2024-01-06T03:51:21;17.70;;;9.47;;
50585;SDS011;36542;51.700;8.846;2024-01-06T03:53:47;20.03;;;9.63;;
50585;SDS011;36542;51.700;8.846;2024-01-06T03:56:13;20.77;;;9.53;;
50585;SDS011;36542;51.700;8.846;2024-01-06T03:58:38;17.77;;;8.47;;
50585;SDS011;36542;51.700;8.846;2024-01-06T04:01:04;18.40;;;8.93;;
50585;SDS011;36542;51.700;8.846;2024-01-06T04:03:29;18.70;;;9.67;;
50585;SDS011;36542;51.700;8.846;2024-01-06T04:05:55;18.60;;;9.47;;
50585;SDS011;36542;51.700;8.846;2024-01-06T04:08:21;17.93;;;9.97;;
50585;SDS011;36542;51.700;8.846;2024-01-06T04:10:48;15.83;;;9.13;;
50585;SDS011;36542;51.700;8.846;2024-01-06T04:13:14;17.53;;;9.43;;
50585;SDS011;36542;51.700;8.846;2024-01-06T04:15:40;17.50;;;9.73;;
50585;SDS011;36542;51.700;8.846;2024-01-06T04:18:06;16.30;;;9.90;;
50585;SDS011;36542;51.700;8.846;2024-01-06T04:20:31;17.37;;;9.80;;
50585;SDS011;36542;51.700;8.846;2024-01-06T04:22:57;18.03;;;10.20;;
50585;SDS011;36542;51.700;8.846;2024-01-06T04:25:23;19.60;;;10.60;;
50585;SDS011;36542;51.700;8.846;2024-01-06T04:27:49;18.83;;;9.40;;
50585;SDS011;36542;51.700;8.846;2024-01-06T04:30:15;21.50;;;11.37;;
50585;SDS011;36542;51.700;8.846;2024-01-06T04:32:41;19.67;;;11.03;;
50585;SDS011;36542;51.700;8.846;2024-01-06T04:35:07;20.77;;;10.60;;
50585;SDS011;36542;51.700;8.846;2024-01-06T04:37:34;19.53;;;11.03;;
50585;SDS011;36542;51.700;8.846;2024-01-06T04:40:00;22.07;;;11.77;;
50585;SDS011;36542;51.700;8.846;2024-01-06T04:42:25;21.03;;;10.87;;
50585;SDS011;36542;51.700;8.846;2024-01-06T04:44:51;19.33;;;10.93;;
50585;SDS011;36542;51.700;8.846;2024-01-06T04:47:16;20.70;;;10.47;;
50585;SDS011;36542;51.700;8.846;2024-01-06T04:49:42;24.87;;;12.17;;
50585;SDS011;36542;51.700;8.846;2024-01-06T04:52:08;23.67;;;11.97;;
50585;SDS011;36542;51.700;8.846;2024-01-06T04:54:34;20.27;;;12.13;;
50585;SDS011;36542;51.700;8.846;2024-01-06T04:57:00;19.33;;;10.80;;
50585;SDS011;36542;51.700;8.846;2024-01-06T04:59:25;22.00;;;12.03;;
50585;SDS011;36542;51.700;8.846;2024-01-06T05:01:51;24.63;;;11.80;;
50585;SDS011;36542;51.700;8.846;2024-01-06T05:04:17;22.37;;;12.13;;
50585;SDS011;36542;51.700;8.846;2024-01-06T05:06:43;23.30;;;12.17;;
50585;SDS011;36542;51.700;8.846;2024-01-06T05:09:09;23.80;;;12.87;;
50585;SDS011;36542;51.700;8.846;2024-01-06T05:11:34;21.57;;;11.67;;
50585;SDS011;36542;51.700;8.846;2024-01-06T05:14:00;22.87;;;12.03;;
50585;SDS011;36542;51.700;8.846;2024-01-06T05:16:26;20.90;;;11.40;;
50585;SDS011;36542;51.700;8.846;2024-01-06T05:18:52;23.80;;;12.23;;
50585;SDS011;36542;51.700;8.846;2024-01-06T05:21:18;23.10;;;12.63;;
50585;SDS011;36542;51.700;8.846;2024-01-06T05:23:43;23.73;;;12.60;;
50585;SDS011;36542;51.700;8.846;2024-01-06T05:26:09;25.70;;;12.57;;
50585;SDS011;36542;51.700;8.846;2024-01-06T05:28:35;22.73;;;11.17;;
50585;SDS011;36542;51.700;8.846;2024-01-06T05:31:00;22.10;;;11.93;;
50585;SDS011;36542;51.700;8.846;2024-01-06T05:33:26;24.10;;;13.27;;
50585;SDS011;36542;51.700;8.846;2024-01-06T05:35:51;24.00;;;12.70;;
50585;SDS011;36542;51.700;8.846;2024-01-06T05:38:17;24.00;;;13.23;;
50585;SDS011;36542;51.700;8.846;2024-01-06T05:40:42;25.63;;;13.03;;
50585;SDS011;36542;51.700;8.846;2024-01-06T05:43:08;19.93;;;11.30;;
50585;SDS011;36542;51.700;8.846;2024-01-06T05:45:33;25.17;;;13.23;;
50585;SDS011;36542;51.700;8.846;2024-01-06T05:47:59;25.37;;;13.90;;
50585;SDS011;36542;51.700;8.846;2024-01-06T05:50:25;25.57;;;12.70;;
50585;SDS011;36542;51.700;8.846;2024-01-06T05:52:50;24.07;;;12.17;;
50585;SDS011;36542;51.700;8.846;2024-01-06T05:55:17;24.30;;;12.40;;
50585;SDS011;36542;51.700;8.846;2024-01-06T05:57:42;23.53;;;11.97;;
50585;SDS011;36542;51.700;8.846;2024-01-06T06:00:08;23.40;;;13.50;;
50585;SDS011;36542;51.700;8.846;2024-01-06T06:02:36;21.57;;;12.07;;
50585;SDS011;36542;51.700;8.846;2024-01-06T06:05:01;20.53;;;11.93;;
50585;SDS011;36542;51.700;8.846;2024-01-06T06:07:27;24.00;;;12.47;;
50585;SDS011;36542;51.700;8.846;2024-01-06T06:09:53;24.77;;;12.60;;
50585;SDS011;36542;51.700;8.846;2024-01-06T06:12:19;25.10;;;12.70;;
50585;SDS011;36542;51.700;8.846;2024-01-06T06:14:44;24.83;;;12.57;;
50585;SDS011;36542;51.700;8.846;2024-01-06T06:17:10;29.73;;;13.43;;
50585;SDS011;36542;51.700;8.846;2024-01-06T06:19:35;27.53;;;14.20;;
50585;SDS011;36542;51.700;8.846;2024-01-06T06:22:01;31.57;;;13.80;;
50585;SDS011;36542;51.700;8.846;2024-01-06T06:24:26;29.83;;;13.93;;
50585;SDS011;36542;51.700;8.846;2024-01-06T06:26:52;27.60;;;14.63;;
50585;SDS011;36542;51.700;8.846;2024-01-06T06:29:17;32.80;;;14.77;;
50585;SDS011;36542;51.700;8.846;2024-01-06T06:31:43;30.73;;;14.23;;
50585;SDS011;36542;51.700;8.846;2024-01-06T06:34:09;34.87;;;15.60;;
50585;SDS011;36542;51.700;8.846;2024-01-06T06:36:35;34.10;;;16.13;;
50585;SDS011;36542;51.700;8.846;2024-01-06T06:39:01;39.17;;;16.57;;
50585;SDS011;36542;51.700;8.846;2024-01-06T06:41:29;38.27;;;17.67;;
50585;SDS011;36542;51.700;8.846;2024-01-06T06:43:54;47.93;;;19.00;;
50585;SDS011;36542;51.700;8.846;2024-01-06T06:46:20;43.80;;;19.27;;
50585;SDS011;36542;51.700;8.846;2024-01-06T06:48:46;47.20;;;19.30;;
50585;SDS011;36542;51.700;8.846;2024-01-06T06:51:12;44.60;;;18.87;;
50585;SDS011;36542;51.700;8.846;2024-01-06T06:53:37;48.17;;;19.03;;
50585;SDS011;36542;51.700;8.846;2024-01-06T06:56:03;51.87;;;19.43;;
50585;SDS011;36542;51.700;8.846;2024-01-06T06:58:29;49.90;;;19.37;;
50585;SDS011;36542;51.700;8.846;2024-01-06T07:00:54;59.43;;;20.40;;
50585;SDS011;36542;51.700;8.846;2024-01-06T07:03:20;53.20;;;20.17;;
50585;SDS011;36542;51.700;8.846;2024-01-06T07:05:46;56.33;;;20.73;;
50585;SDS011;36542;51.700;8.846;2024-01-06T07:08:11;55.73;;;19.73;;
50585;SDS011;36542;51.700;8.846;2024-01-06T07:10:39;62.23;;;20.70;;
50585;SDS011;36542;51.700;8.846;2024-01-06T07:13:05;55.27;;;19.93;;
50585;SDS011;36542;51.700;8.846;2024-01-06T07:15:31;55.87;;;20.53;;
50585;SDS011;36542;51.700;8.846;2024-01-06T07:17:56;64.40;;;21.63;;
50585;SDS011;36542;51.700;8.846;2024-01-06T07:20:22;59.40;;;20.20;;
50585;SDS011;36542;51.700;8.846;2024-01-06T07:22:47;63.83;;;23.10;;
50585;SDS011;36542;51.700;8.846;2024-01-06T07:25:13;65.47;;;21.53;;
50585;SDS011;36542;51.700;8.846;2024-01-06T07:27:39;78.17;;;21.83;;
50585;SDS011;36542;51.700;8.846;2024-01-06T07:30:04;65.43;;;21.93;;
50585;SDS011;36542;51.700;8.846;2024-01-06T07:32:33;58.37;;;21.60;;
50585;SDS011;36542;51.700;8.846;2024-01-06T07:34:58;60.53;;;21.20;;
50585;SDS011;36542;51.700;8.846;2024-01-06T07:37:25;65.97;;;20.83;;
50585;SDS011;36542;51.700;8.846;2024-01-06T07:39:50;59.37;;;19.73;;
50585;SDS011;36542;51.700;8.846;2024-01-06T07:42:16;62.67;;;19.17;;
50585;SDS011;36542;51.700;8.846;2024-01-06T07:44:42;56.47;;;19.10;;
50585;SDS011;36542;51.700;8.846;2024-01-06T07:47:09;60.50;;;19.67;;
50585;SDS011;36542;51.700;8.846;2024-01-06T07:49:35;54.57;;;18.20;;
50585;SDS011;36542;51.700;8.846;2024-01-06T07:52:00;59.67;;;19.27;;
50585;SDS011;36542;51.700;8.846;2024-01-06T07:54:26;52.70;;;17.93;;
50585;SDS011;36542;51.700;8.846;2024-01-06T07:56:52;57.43;;;17.50;;
50585;SDS011;36542;51.700;8.846;2024-01-06T07:59:18;60.37;;;19.93;;
50585;SDS011;36542;51.700;8.846;2024-01-06T08:01:43;61.93;;;18.30;;
50585;SDS011;36542;51.700;8.846;2024-01-06T08:04:09;57.80;;;19.13;;
50585;SDS011;36542;51.700;8.846;2024-01-06T08:06:34;59.00;;;19.60;;
50585;SDS011;36542;51.700;8.846;2024-01-06T08:09:00;55.00;;;19.20;;
50585;SDS011;36542;51.700;8.846;2024-01-06T08:11:26;55.60;;;18.47;;
50585;SDS011;36542;51.700;8.846;2024-01-06T08:13:51;59.37;;;21.93;;
50585;SDS011;36542;51.700;8.846;2024-01-06T08:16:17;57.37;;;18.93;;
50585;SDS011;36542;51.700;8.846;2024-01-06T08:18:43;59.13;;;18.07;;
50585;SDS011;36542;51.700;8.846;2024-01-06T08:21:09;53.80;;;17.37;;
50585;SDS011;36542;51.700;8.846;2024-01-06T08:23:35;50.70;;;17.23;;
50585;SDS011;36542;51.700;8.846;2024-01-06T08:26:01;58.20;;;21.47;;
50585;SDS011;36542;51.700;8.846;2024-01-06T08:28:27;60.80;;;21.83;;
50585;SDS011;36542;51.700;8.846;2024-01-06T08:30:52;50.27;;;16.97;;
50585;SDS011;36542;51.700;8.846;2024-01-06T08:33:18;52.57;;;18.27;;
50585;SDS011;36542;51.700;8.846;2024-01-06T08:35:44;46.60;;;16.53;;
50585;SDS011;36542;51.700;8.846;2024-01-06T08:38:09;48.27;;;18.13;;
50585;SDS011;36542;51.700;8.846;2024-01-06T08:40:35;49.17;;;18.23;;
50585;SDS011;36542;51.700;8.846;2024-01-06T08:43:01;45.83;;;18.20;;
50585;SDS011;36542;51.700;8.846;2024-01-06T08:45:27;52.53;;;18.63;;
50585;SDS011;36542;51.700;8.846;2024-01-06T08:47:53;51.57;;;18.53;;
50585;SDS011;36542;51.700;8.846;2024-01-06T08:50:18;50.43;;;17.87;;
50585;SDS011;36542;51.700;8.846;2024-01-06T08:52:44;46.20;;;17.63;;
50585;SDS011;36542;51.700;8.846;2024-01-06T08:55:09;50.23;;;18.67;;
50585;SDS011;36542;51.700;8.846;2024-01-06T08:57:35;45.63;;;18.77;;
50585;SDS011;36542;51.700;8.846;2024-01-06T09:00:02;50.57;;;20.80;;
50585;SDS011;36542;51.700;8.846;2024-01-06T09:02:28;48.13;;;18.93;;
50585;SDS011;36542;51.700;8.846;2024-01-06T09:04:54;56.13;;;21.50;;
50585;SDS011;36542;51.700;8.846;2024-01-06T09:07:19;53.23;;;23.23;;
50585;SDS011;36542;51.700;8.846;2024-01-06T09:09:45;51.07;;;19.50;;
50585;SDS011;36542;51.700;8.846;2024-01-06T09:12:10;51.10;;;19.43;;
50585;SDS011;36542;51.700;8.846;2024-01-06T09:14:36;45.07;;;18.27;;
50585;SDS011;36542;51.700;8.846;2024-01-06T09:17:01;45.37;;;17.40;;
50585;SDS011;36542;51.700;8.846;2024-01-06T09:19:27;44.53;;;17.50;;
50585;SDS011;36542;51.700;8.846;2024-01-06T09:21:53;49.90;;;18.53;;
50585;SDS011;36542;51.700;8.846;2024-01-06T09:24:20;41.80;;;17.17;;
50585;SDS011;36542;51.700;8.846;2024-01-06T09:26:45;46.83;;;17.50;;
50585;SDS011;36542;51.700;8.846;2024-01-06T09:29:11;47.13;;;18.43;;
50585;SDS011;36542;51.700;8.846;2024-01-06T09:31:37;49.37;;;18.47;;
50585;SDS011;36542;51.700;8.846;2024-01-06T09:34:02;43.40;;;17.70;;
50585;SDS011;36542;51.700;8.846;2024-01-06T09:36:29;44.47;;;18.27;;
50585;SDS011;36542;51.700;8.846;2024-01-06T09:38:55;43.37;;;17.53;;
50585;SDS011;36542;51.700;8.846;2024-01-06T09:41:21;175.40;;;23.57;;
50585;SDS011;36542;51.700;8.846;2024-01-06T09:43:47;451.47;;;43.40;;
50585;SDS011;36542;51.700;8.846;2024-01-06T09:46:25;472.57;;;46.20;;
50585;SDS011;36542;51.700;8.846;2024-01-06T09:48:57;449.23;;;43.83;;
50585;SDS011;36542;51.700;8.846;2024-01-06T09:51:23;423.00;;;46.40;;
50585;SDS011;36542;51.700;8.846;2024-01-06T09:53:58;347.03;;;32.90;;
50585;SDS011;36542;51.700;8.846;2024-01-06T09:56:26;337.73;;;33.63;;
50585;SDS011;36542;51.700;8.846;2024-01-06T09:58:53;241.23;;;29.47;;
50585;SDS011;36542;51.700;8.846;2024-01-06T10:01:19;291.27;;;31.67;;
50585;SDS011;36542;51.700;8.846;2024-01-06T10:03:45;473.67;;;44.83;;
50585;SDS011;36542;51.700;8.846;2024-01-06T10:06:10;484.27;;;43.07;;
50585;SDS011;36542;51.700;8.846;2024-01-06T10:08:37;459.27;;;46.20;;
50585;SDS011;36542;51.700;8.846;2024-01-06T10:11:05;377.87;;;35.60;;
50585;SDS011;36542;51.700;8.846;2024-01-06T10:13:31;394.60;;;40.13;;
50585;SDS011;36542;51.700;8.846;2024-01-06T10:15:57;390.10;;;38.50;;
50585;SDS011;36542;51.700;8.846;2024-01-06T10:18:24;404.20;;;40.07;;
50585;SDS011;36542;51.700;8.846;2024-01-06T10:20:51;400.23;;;39.97;;
50585;SDS011;36542;51.700;8.846;2024-01-06T10:23:16;463.10;;;48.87;;
50585;SDS011;36542;51.700;8.846;2024-01-06T10:25:42;507.67;;;50.33;;
50585;SDS011;36542;51.700;8.846;2024-01-06T10:28:10;245.30;;;27.27;;
50585;SDS011;36542;51.700;8.846;2024-01-06T10:30:37;205.17;;;22.83;;
50585;SDS011;36542;51.700;8.846;2024-01-06T10:33:07;112.20;;;17.63;;
50585;SDS011;36542;51.700;8.846;2024-01-06T10:35:33;99.93;;;16.67;;
50585;SDS011;36542;51.700;8.846;2024-01-06T10:38:01;144.27;;;20.13;;
50585;SDS011;36542;51.700;8.846;2024-01-06T10:40:27;65.03;;;14.20;;
50585;SDS011;36542;51.700;8.846;2024-01-06T10:42:52;86.23;;;15.63;;
50585;SDS011;36542;51.700;8.846;2024-01-06T10:45:18;38.97;;;11.97;;
50585;SDS011;36542;51.700;8.846;2024-01-06T10:47:44;83.27;;;18.40;;
50585;SDS011;36542;51.700;8.846;2024-01-06T10:50:11;47.07;;;13.50;;
50585;SDS011;36542;51.700;8.846;2024-01-06T10:52:38;45.90;;;13.07;;
50585;SDS011;36542;51.700;8.846;2024-01-06T10:55:05;70.20;;;14.13;;
50585;SDS011;36542;51.700;8.846;2024-01-06T10:57:31;47.13;;;12.63;;
50585;SDS011;36542;51.700;8.846;2024-01-06T10:59:57;39.77;;;12.83;;
50585;SDS011;36542;51.700;8.846;2024-01-06T11:02:24;40.87;;;11.67;;
50585;SDS011;36542;51.700;8.846;2024-01-06T11:04:50;52.47;;;13.37;;
50585;SDS011;36542;51.700;8.846;2024-01-06T11:07:17;37.00;;;10.70;;
50585;SDS011;36542;51.700;8.846;2024-01-06T11:09:52;42.57;;;11.83;;
50585;SDS011;36542;51.700;8.846;2024-01-06T11:12:38;44.67;;;12.77;;
50585;SDS011;36542;51.700;8.846;2024-01-06T11:15:03;55.30;;;13.50;;
50585;SDS011;36542;51.700;8.846;2024-01-06T11:17:48;93.00;;;15.60;;
50585;SDS011;36542;51.700;8.846;2024-01-06T11:20:23;127.07;;;18.70;;
50585;SDS011;36542;51.700;8.846;2024-01-06T11:22:52;127.10;;;21.20;;
50585;SDS011;36542;51.700;8.846;2024-01-06T11:25:19;249.83;;;26.77;;
50585;SDS011;36542;51.700;8.846;2024-01-06T11:27:46;300.47;;;30.40;;
50585;SDS011;36542;51.700;8.846;2024-01-06T11:30:23;168.43;;;21.80;;
50585;SDS011;36542;51.700;8.846;2024-01-06T11:32:53;258.53;;;26.53;;
50585;SDS011;36542;51.700;8.846;2024-01-06T11:35:25;223.63;;;27.13;;
50585;SDS011;36542;51.700;8.846;2024-01-06T11:37:55;207.10;;;27.20;;
50585;SDS011;36542;51.700;8.846;2024-01-06T11:40:32;297.70;;;35.60;;
50585;SDS011;36542;51.700;8.846;2024-01-06T11:43:04;118.63;;;22.00;;
50585;SDS011;36542;51.700;8.846;2024-01-06T11:45:34;262.83;;;31.83;;
50585;SDS011;36542;51.700;8.846;2024-01-06T11:48:01;149.87;;;25.67;;
50585;SDS011;36542;51.700;8.846;2024-01-06T11:50:29;65.77;;;18.67;;
50585;SDS011;36542;51.700;8.846;2024-01-06T11:52:55;74.60;;;19.00;;
50585;SDS011;36542;51.700;8.846;2024-01-06T11:55:21;79.17;;;18.60;;
50585;SDS011;36542;51.700;8.846;2024-01-06T11:57:46;52.57;;;16.37;;
50585;SDS011;36542;51.700;8.846;2024-01-06T12:00:16;53.97;;;16.27;;
50585;SDS011;36542;51.700;8.846;2024-01-06T12:02:42;63.73;;;16.77;;
50585;SDS011;36542;51.700;8.846;2024-01-06T12:05:15;67.53;;;16.20;;
50585;SDS011;36542;51.700;8.846;2024-01-06T12:07:43;81.97;;;18.10;;
50585;SDS011;36542;51.700;8.846;2024-01-06T12:10:22;77.57;;;16.40;;
50585;SDS011;36542;51.700;8.846;2024-01-06T12:12:58;73.43;;;16.37;;
50585;SDS011;36542;51.700;8.846;2024-01-06T12:15:25;63.40;;;16.10;;
50585;SDS011;36542;51.700;8.846;2024-01-06T12:17:51;583.60;;;55.63;;
50585;SDS011;36542;51.700;8.846;2024-01-06T12:20:17;557.07;;;44.53;;
50585;SDS011;36542;51.700;8.846;2024-01-06T12:22:43;557.23;;;52.90;;
50585;SDS011;36542;51.700;8.846;2024-01-06T12:25:09;429.30;;;40.90;;
50585;SDS011;36542;51.700;8.846;2024-01-06T12:27:35;341.33;;;35.83;;
50585;SDS011;36542;51.700;8.846;2024-01-06T12:30:00;449.77;;;44.17;;
50585;SDS011;36542;51.700;8.846;2024-01-06T12:32:26;397.77;;;45.07;;
50585;SDS011;36542;51.700;8.846;2024-01-06T12:34:52;394.00;;;39.73;;
50585;SDS011;36542;51.700;8.846;2024-01-06T12:37:18;449.20;;;42.70;;
50585;SDS011;36542;51.700;8.846;2024-01-06T12:39:43;389.53;;;35.40;;
50585;SDS011;36542;51.700;8.846;2024-01-06T12:42:14;389.93;;;40.70;;
50585;SDS011;36542;51.700;8.846;2024-01-06T12:44:41;397.03;;;43.47;;
50585;SDS011;36542;51.700;8.846;2024-01-06T12:47:07;413.53;;;42.57;;
50585;SDS011;36542;51.700;8.846;2024-01-06T12:49:33;451.03;;;46.50;;
50585;SDS011;36542;51.700;8.846;2024-01-06T12:51:58;460.17;;;44.20;;
50585;SDS011;36542;51.700;8.846;2024-01-06T12:54:24;473.53;;;43.07;;
50585;SDS011;36542;51.700;8.846;2024-01-06T12:56:49;381.90;;;40.93;;
50585;SDS011;36542;51.700;8.846;2024-01-06T12:59:15;406.03;;;39.07;;
50585;SDS011;36542;51.700;8.846;2024-01-06T13:01:41;514.43;;;54.13;;
50585;SDS011;36542;51.700;8.846;2024-01-06T13:04:07;385.67;;;38.33;;
50585;SDS011;36542;51.700;8.846;2024-01-06T13:06:33;345.20;;;35.53;;
50585;SDS011;36542;51.700;8.846;2024-01-06T13:08:59;397.97;;;40.33;;
50585;SDS011;36542;51.700;8.846;2024-01-06T13:11:27;483.97;;;46.33;;
50585;SDS011;36542;51.700;8.846;2024-01-06T13:13:53;535.33;;;53.53;;
50585;SDS011;36542;51.700;8.846;2024-01-06T13:16:18;526.70;;;53.90;;
50585;SDS011;36542;51.700;8.846;2024-01-06T13:18:44;347.93;;;36.23;;
50585;SDS011;36542;51.700;8.846;2024-01-06T13:21:09;431.87;;;43.33;;
50585;SDS011;36542;51.700;8.846;2024-01-06T13:23:35;376.53;;;36.87;;
50585;SDS011;36542;51.700;8.846;2024-01-06T13:26:00;346.93;;;38.83;;
50585;SDS011;36542;51.700;8.846;2024-01-06T13:28:26;424.00;;;43.97;;
50585;SDS011;36542;51.700;8.846;2024-01-06T13:30:51;464.97;;;47.20;;
50585;SDS011;36542;51.700;8.846;2024-01-06T13:33:18;425.40;;;49.90;;
50585;SDS011;36542;51.700;8.846;2024-01-06T13:35:44;372.47;;;43.47;;
50585;SDS011;36542;51.700;8.846;2024-01-06T13:38:09;366.30;;;43.37;;
50585;SDS011;36542;51.700;8.846;2024-01-06T13:40:35;417.83;;;41.93;;
50585;SDS011;36542;51.700;8.846;2024-01-06T13:43:01;479.00;;;47.27;;
50585;SDS011;36542;51.700;8.846;2024-01-06T13:45:29;408.63;;;43.77;;
50585;SDS011;36542;51.700;8.846;2024-01-06T13:47:55;558.80;;;62.03;;
50585;SDS011;36542;51.700;8.846;2024-01-06T13:50:21;508.60;;;54.33;;
50585;SDS011;36542;51.700;8.846;2024-01-06T13:52:46;421.47;;;44.70;;
50585;SDS011;36542;51.700;8.846;2024-01-06T13:55:13;385.27;;;38.77;;
50585;SDS011;36542;51.700;8.846;2024-01-06T13:57:38;339.70;;;38.40;;
50585;SDS011;36542;51.700;8.846;2024-01-06T14:00:07;296.83;;;33.90;;
50585;SDS011;36542;51.700;8.846;2024-01-06T14:02:36;383.03;;;47.40;;
50585;SDS011;36542;51.700;8.846;2024-01-06T14:05:03;136.60;;;21.17;;
50585;SDS011;36542;51.700;8.846;2024-01-06T14:07:29;137.87;;;20.57;;
50585;SDS011;36542;51.700;8.846;2024-01-06T14:09:55;145.87;;;20.87;;
50585;SDS011;36542;51.700;8.846;2024-01-06T14:12:20;185.57;;;25.00;;
50585;SDS011;36542;51.700;8.846;2024-01-06T14:14:46;298.47;;;32.43;;